sensor_id;sensor_type;location;lat;lon;timestamp;P1;durP1;ratioP1;P2;durP2;ratioP2
54408;SDS011;40315;48.620;9.828;2023-05-10T00:01:03;1.52;;;1.20;;
54408;SDS011;40315;48.620;9.828;2023-05-10T00:03:30;1.30;;;1.20;;
54408;SDS011;40315;48.620;9.828;2023-05-10T00:05:58;1.30;;;1.20;;
54408;SDS011;40315;48.620;9.828;2023-05-10T00:08:25;2.80;;;1.33;;
54408;SDS011;40315;48.620;9.828;2023-05-10T00:10:53;1.40;;;1.30;;
54408;SDS011;40315;48.620;9.828;2023-05-10T00:13:20;1.30;;;1.15;;
54408;SDS011;40315;48.620;9.828;2023-05-10T00:15:48;1.48;;;1.33;;
54408;SDS011;40315;48.620;9.828;2023-05-10T00:18:15;1.73;;;1.38;;
54408;SDS011;40315;48.620;9.828;2023-05-10T00:20:42;1.50;;;1.40;;
54408;SDS011;40315;48.620;9.828;2023-05-10T00:23:11;1.60;;;1.50;;
54408;SDS011;40315;48.620;9.828;2023-05-10T00:25:38;1.58;;;1.48;;
54408;SDS011;40315;48.620;9.828;2023-05-10T00:28:06;1.40;;;1.30;;
54408;SDS011;40315;48.620;9.828;2023-05-10T00:30:33;1.65;;;1.40;;
54408;SDS011;40315;48.620;9.828;2023-05-10T00:33:02;0.95;;;0.90;;
54408;SDS011;40315;48.620;9.828;2023-05-10T00:35:29;1.13;;;1.00;;
54408;SDS011;40315;48.620;9.828;2023-05-10T00:38:00;1.65;;;0.80;;
54408;SDS011;40315;48.620;9.828;2023-05-10T00:40:27;1.85;;;0.88;;
54408;SDS011;40315;48.620;9.828;2023-05-10T00:42:59;0.70;;;0.70;;
54408;SDS011;40315;48.620;9.828;2023-05-10T00:45:28;0.60;;;0.60;;
54408;SDS011;40315;48.620;9.828;2023-05-10T00:47:55;0.50;;;0.50;;
54408;SDS011;40315;48.620;9.828;2023-05-10T00:50:23;0.70;;;0.55;;
54408;SDS011;40315;48.620;9.828;2023-05-10T00:52:51;0.60;;;0.60;;
54408;SDS011;40315;48.620;9.828;2023-05-10T00:55:18;1.52;;;0.55;;
54408;SDS011;40315;48.620;9.828;2023-05-10T00:57:46;1.52;;;0.80;;
54408;SDS011;40315;48.620;9.828;2023-05-10T01:00:15;0.60;;;0.60;;
54408;SDS011;40315;48.620;9.828;2023-05-10T01:03:12;1.00;;;0.77;;
54408;SDS011;40315;48.620;9.828;2023-05-10T01:05:42;0.50;;;0.50;;
54408;SDS011;40315;48.620;9.828;2023-05-10T01:08:09;1.17;;;0.70;;
54408;SDS011;40315;48.620;9.828;2023-05-10T01:10:36;0.88;;;0.70;;
54408;SDS011;40315;48.620;9.828;2023-05-10T01:13:03;0.63;;;0.60;;
54408;SDS011;40315;48.620;9.828;2023-05-10T01:15:40;0.68;;;0.60;;
54408;SDS011;40315;48.620;9.828;2023-05-10T01:18:08;0.40;;;0.40;;
54408;SDS011;40315;48.620;9.828;2023-05-10T01:20:39;0.55;;;0.50;;
54408;SDS011;40315;48.620;9.828;2023-05-10T01:26:14;1.27;;;0.40;;
54408;SDS011;40315;48.620;9.828;2023-05-10T01:32:14;0.63;;;0.30;;
54408;SDS011;40315;48.620;9.828;2023-05-10T01:34:47;0.30;;;0.30;;
54408;SDS011;40315;48.620;9.828;2023-05-10T01:37:21;0.43;;;0.30;;
54408;SDS011;40315;48.620;9.828;2023-05-10T01:39:55;0.63;;;0.30;;
54408;SDS011;40315;48.620;9.828;2023-05-10T01:42:29;1.20;;;0.40;;
54408;SDS011;40315;48.620;9.828;2023-05-10T01:45:05;0.30;;;0.30;;
54408;SDS011;40315;48.620;9.828;2023-05-10T20:08:09;3.83;;;2.25;;
54408;SDS011;40315;48.620;9.828;2023-05-10T20:10:37;5.88;;;2.13;;
54408;SDS011;40315;48.620;9.828;2023-05-10T20:13:04;4.10;;;2.10;;
54408;SDS011;40315;48.620;9.828;2023-05-10T20:15:31;2.67;;;2.20;;
54408;SDS011;40315;48.620;9.828;2023-05-10T20:17:59;4.55;;;2.50;;
54408;SDS011;40315;48.620;9.828;2023-05-10T20:20:27;2.92;;;2.20;;
54408;SDS011;40315;48.620;9.828;2023-05-10T20:22:57;4.00;;;2.10;;
54408;SDS011;40315;48.620;9.828;2023-05-10T20:25:26;3.95;;;2.60;;
54408;SDS011;40315;48.620;9.828;2023-05-10T20:27:53;3.33;;;2.25;;
54408;SDS011;40315;48.620;9.828;2023-05-10T20:30:20;4.38;;;2.30;;
54408;SDS011;40315;48.620;9.828;2023-05-10T20:32:49;5.85;;;2.00;;
54408;SDS011;40315;48.620;9.828;2023-05-10T20:35:17;5.93;;;2.58;;
54408;SDS011;40315;48.620;9.828;2023-05-10T20:37:46;2.47;;;2.28;;
54408;SDS011;40315;48.620;9.828;2023-05-10T20:40:14;4.68;;;2.38;;
54408;SDS011;40315;48.620;9.828;2023-05-10T20:42:42;3.90;;;2.35;;
54408;SDS011;40315;48.620;9.828;2023-05-10T20:45:10;4.28;;;2.40;;
54408;SDS011;40315;48.620;9.828;2023-05-10T20:47:38;3.63;;;2.10;;
54408;SDS011;40315;48.620;9.828;2023-05-10T20:50:09;4.88;;;2.40;;
54408;SDS011;40315;48.620;9.828;2023-05-10T20:52:46;5.15;;;2.35;;
54408;SDS011;40315;48.620;9.828;2023-05-10T20:55:15;3.50;;;2.10;;
54408;SDS011;40315;48.620;9.828;2023-05-10T20:57:43;4.65;;;2.22;;
54408;SDS011;40315;48.620;9.828;2023-05-10T21:00:11;3.63;;;2.40;;
54408;SDS011;40315;48.620;9.828;2023-05-10T21:02:40;3.35;;;2.30;;
54408;SDS011;40315;48.620;9.828;2023-05-10T21:05:10;2.80;;;2.17;;
54408;SDS011;40315;48.620;9.828;2023-05-10T21:07:38;2.85;;;2.10;;
54408;SDS011;40315;48.620;9.828;2023-05-10T21:10:05;3.15;;;1.90;;
54408;SDS011;40315;48.620;9.828;2023-05-10T21:12:34;2.22;;;2.03;;
54408;SDS011;40315;48.620;9.828;2023-05-10T21:15:03;2.63;;;1.63;;
54408;SDS011;40315;48.620;9.828;2023-05-10T21:17:30;5.80;;;1.70;;
54408;SDS011;40315;48.620;9.828;2023-05-10T21:19:57;3.55;;;1.65;;
54408;SDS011;40315;48.620;9.828;2023-05-10T21:22:24;2.58;;;1.85;;
54408;SDS011;40315;48.620;9.828;2023-05-10T21:24:51;3.60;;;1.70;;
54408;SDS011;40315;48.620;9.828;2023-05-10T21:27:21;2.63;;;1.80;;
54408;SDS011;40315;48.620;9.828;2023-05-10T21:29:48;4.07;;;2.10;;
54408;SDS011;40315;48.620;9.828;2023-05-10T21:32:16;3.30;;;2.30;;
54408;SDS011;40315;48.620;9.828;2023-05-10T21:34:43;6.28;;;2.20;;
54408;SDS011;40315;48.620;9.828;2023-05-10T21:37:10;2.33;;;2.10;;
54408;SDS011;40315;48.620;9.828;2023-05-10T21:39:37;3.17;;;2.08;;
54408;SDS011;40315;48.620;9.828;2023-05-10T21:42:04;3.92;;;2.50;;
54408;SDS011;40315;48.620;9.828;2023-05-10T21:44:33;2.45;;;2.10;;
54408;SDS011;40315;48.620;9.828;2023-05-10T21:47:03;2.85;;;2.03;;
54408;SDS011;40315;48.620;9.828;2023-05-10T21:49:34;2.95;;;2.28;;
54408;SDS011;40315;48.620;9.828;2023-05-10T21:52:01;4.50;;;1.85;;
54408;SDS011;40315;48.620;9.828;2023-05-10T21:54:29;3.40;;;1.83;;
54408;SDS011;40315;48.620;9.828;2023-05-10T21:56:56;1.90;;;1.73;;
54408;SDS011;40315;48.620;9.828;2023-05-10T21:59:26;1.98;;;1.70;;
54408;SDS011;40315;48.620;9.828;2023-05-10T22:01:53;3.28;;;2.10;;
54408;SDS011;40315;48.620;9.828;2023-05-10T22:04:22;2.25;;;1.95;;
54408;SDS011;40315;48.620;9.828;2023-05-10T22:06:51;1.92;;;1.80;;
54408;SDS011;40315;48.620;9.828;2023-05-10T22:09:18;3.38;;;1.85;;
54408;SDS011;40315;48.620;9.828;2023-05-10T22:11:45;6.20;;;1.83;;
54408;SDS011;40315;48.620;9.828;2023-05-10T22:14:14;3.72;;;1.90;;
54408;SDS011;40315;48.620;9.828;2023-05-10T22:16:41;1.83;;;1.52;;
54408;SDS011;40315;48.620;9.828;2023-05-10T22:19:11;6.38;;;2.58;;
54408;SDS011;40315;48.620;9.828;2023-05-10T22:21:38;3.97;;;1.83;;
54408;SDS011;40315;48.620;9.828;2023-05-10T22:24:06;6.72;;;1.80;;
54408;SDS011;40315;48.620;9.828;2023-05-10T22:26:33;1.65;;;1.55;;
54408;SDS011;40315;48.620;9.828;2023-05-10T22:29:01;1.52;;;1.30;;
54408;SDS011;40315;48.620;9.828;2023-05-10T22:31:28;3.55;;;1.45;;
54408;SDS011;40315;48.620;9.828;2023-05-10T22:33:55;3.10;;;1.45;;
54408;SDS011;40315;48.620;9.828;2023-05-10T22:36:22;4.75;;;1.42;;
54408;SDS011;40315;48.620;9.828;2023-05-10T22:38:49;1.85;;;1.40;;
54408;SDS011;40315;48.620;9.828;2023-05-10T22:41:17;2.40;;;1.50;;
54408;SDS011;40315;48.620;9.828;2023-05-10T22:43:44;1.77;;;1.52;;
54408;SDS011;40315;48.620;9.828;2023-05-10T22:46:11;1.55;;;1.45;;
54408;SDS011;40315;48.620;9.828;2023-05-10T22:48:39;3.85;;;1.45;;
54408;SDS011;40315;48.620;9.828;2023-05-10T22:51:07;2.90;;;1.50;;
54408;SDS011;40315;48.620;9.828;2023-05-10T22:53:37;1.65;;;1.55;;
54408;SDS011;40315;48.620;9.828;2023-05-10T22:56:04;2.58;;;1.50;;
54408;SDS011;40315;48.620;9.828;2023-05-10T22:58:33;1.90;;;1.70;;
54408;SDS011;40315;48.620;9.828;2023-05-10T23:01:00;2.45;;;1.70;;
54408;SDS011;40315;48.620;9.828;2023-05-10T23:03:29;2.42;;;2.00;;
54408;SDS011;40315;48.620;9.828;2023-05-10T23:05:56;2.92;;;1.85;;
54408;SDS011;40315;48.620;9.828;2023-05-10T23:08:24;1.40;;;1.30;;
54408;SDS011;40315;48.620;9.828;2023-05-10T23:10:51;3.22;;;2.17;;
54408;SDS011;40315;48.620;9.828;2023-05-10T23:13:18;2.03;;;1.80;;
54408;SDS011;40315;48.620;9.828;2023-05-10T23:15:49;2.08;;;1.70;;
54408;SDS011;40315;48.620;9.828;2023-05-10T23:18:16;3.10;;;1.60;;
54408;SDS011;40315;48.620;9.828;2023-05-10T23:20:43;4.20;;;2.15;;
54408;SDS011;40315;48.620;9.828;2023-05-10T23:23:10;3.28;;;1.70;;
54408;SDS011;40315;48.620;9.828;2023-05-10T23:25:37;2.20;;;1.88;;
54408;SDS011;40315;48.620;9.828;2023-05-10T23:28:06;2.90;;;1.80;;
54408;SDS011;40315;48.620;9.828;2023-05-10T23:30:33;3.83;;;1.58;;
54408;SDS011;40315;48.620;9.828;2023-05-10T23:33:04;1.85;;;1.60;;
54408;SDS011;40315;48.620;9.828;2023-05-10T23:35:34;2.15;;;1.65;;
54408;SDS011;40315;48.620;9.828;2023-05-10T23:38:01;2.35;;;1.88;;
54408;SDS011;40315;48.620;9.828;2023-05-10T23:40:28;5.13;;;1.80;;
54408;SDS011;40315;48.620;9.828;2023-05-10T23:42:55;3.55;;;1.80;;
54408;SDS011;40315;48.620;9.828;2023-05-10T23:45:22;3.67;;;1.83;;
54408;SDS011;40315;48.620;9.828;2023-05-10T23:47:49;2.17;;;1.60;;
54408;SDS011;40315;48.620;9.828;2023-05-10T23:50:18;1.90;;;1.60;;
54408;SDS011;40315;48.620;9.828;2023-05-10T23:52:48;2.05;;;1.55;;
54408;SDS011;40315;48.620;9.828;2023-05-10T23:55:15;1.50;;;1.40;;
54408;SDS011;40315;48.620;9.828;2023-05-10T23:57:42;2.25;;;1.50;;
